• Join FlightAware (Why Join?)
  • Login
  • US Flag 
04:41AM EDT


 

Airport Tracker/Info


-or-


 

Live Flight TrackerFlight Track Log ✈ N510SR ✈ 17-Jul-2013 ✈ KTEB - EIDW / DUB

Flight Track Log - Related Links

Times and Time Zones

All times are in EDT time to prevent confusion due to time zone crossing. See the N510SR flight status page for this flight to view local times or setup timezone preferences in your user account.

Time Position Orientation Groundspeed Altitude Reporting Facility
EDT Latitude Longitude Course Direction KTS MPH feet Rate Location/Type
10:22PM 40.8167 -74.1333 56° Northeast 198 228 1,600  Level New York TRACON
10:23PM 40.8167 -74.2167 270° West 231 266 3,500 1,620 Climbing New York TRACON
10:24PM 40.8500 -74.2833 303° West 243 280 5,100 1,020 Climbing New York TRACON
10:25PM 40.9167 -74.2500 21° North 265 305 5,600 1,260 Climbing New York TRACON
10:26PM 40.9833 -74.2167 21° North 272 313 7,600 2,280 Climbing New York TRACON
10:27PM 41.2491 -73.7019 56° Northeast  Level FlightAware Approximate
10:27PM 41.0333 -74.1167 56° Northeast 289 333 10,200  Level New York TRACON
10:28PM 41.0833 -74.0167 56° Northeast 349 402 11,600 1,620 Climbing New York TRACON
10:29PM 41.1167 -73.9000 69° East 373 429 13,500 1,980 Climbing New York TRACON
10:31PM 41.1867 -73.7033 65° Northeast 404 465 16,600 1,380 Climbing Boston Center
10:32PM 41.2275 -73.5828 66° East 398 458 17,100 900 Climbing Boston Center
10:33PM 41.2789 -73.4317 66° East 398 458 18,400 1,380 Climbing Boston Center
10:34PM 41.3322 -73.2889 64° Northeast 403 464 19,900 1,620 Climbing Boston Center
10:35PM 41.3875 -73.1483 62° Northeast 408 470 21,700 1,560 Climbing Boston Center
10:36PM 41.4467 -73.0106 60° Northeast 419 482 23,100 1,260 Climbing Boston Center
10:37PM 41.5097 -72.8725 59° Northeast 429 494 24,300 1,200 Climbing Boston Center
10:38PM 41.5686 -72.7286 61° Northeast 434 499 25,600 1,140 Climbing Boston Center
10:39PM 41.6356 -72.5872 58° Northeast 446 513 26,600 1,020 Climbing Boston Center
10:40PM 41.7044 -72.4372 58° Northeast 451 519 27,700 1,200 Climbing Boston Center
10:41PM 41.7708 -72.2925 58° Northeast 451 519 29,100 1,200 Climbing Boston Center
10:42PM 41.8311 -72.1558 59° Northeast 456 525 30,200 1,200 Climbing Boston Center
10:43PM 41.8994 -72.0078 58° Northeast 456 525 31,600 1,260 Climbing Boston Center
10:44PM 41.9656 -71.8622 59° Northeast 456 525 32,800 1,320 Climbing Boston Center
10:45PM 42.0333 -71.7133 58° Northeast 456 525 34,300 1,380 Climbing Boston Center
10:46PM 42.1053 -71.5531 59° Northeast 456 525 35,600 1,260 Climbing Boston Center
10:47PM 42.1622 -71.4039 63° Northeast 451 519 36,900 1,380 Climbing Boston Center
10:48PM 42.2192 -71.2597 62° Northeast 446 513 38,400 1,320 Climbing Boston Center
10:49PM 42.2761 -71.1186 61° Northeast 434 499 39,600 900 Climbing Boston Center
10:50PM 42.3306 -70.9769 62° Northeast 429 494 40,300 660 Climbing Boston Center
10:51PM 42.3850 -70.8378 62° Northeast 424 488 41,000 300 Climbing Boston Center
10:52PM 42.4331 -70.7044 64° Northeast 424 488 41,000  Level Boston Center
10:53PM 42.4769 -70.5850 63° Northeast 430 495 41,100  Climbing Boston Center
10:54PM 42.5469 -70.4053 62° Northeast 436 502 41,000 -60 Descending Boston Center
10:55PM 42.6067 -70.2539 62° Northeast 441 507 41,000  Level Boston Center
10:56PM 42.6639 -70.1022 63° Northeast 441 507 41,000  Level Boston Center
10:57PM 42.7211 -69.9475 63° Northeast 441 507 41,000  Level Boston Center
10:58PM 42.7803 -69.7922 63° Northeast 446 513 41,100  Climbing Boston Center
10:59PM 42.8450 -69.6253 62° Northeast 451 519 41,000 -60 Descending Boston Center
11:00PM 42.9017 -69.4808 62° Northeast 457 526 41,000  Level Boston Center
11:01PM 42.9578 -69.3192 65° Northeast 457 526 41,000  Level Boston Center
11:02PM 43.0161 -69.1628 63° Northeast 457 526 41,000  Level Boston Center
11:03PM 43.0739 -69.0006 64° Northeast 463 533 41,000  Level Boston Center
11:04PM 43.1392 -68.8233 63° Northeast 463 533 41,100  Climbing Boston Center
11:05PM 43.1964 -68.6603 64° Northeast 468 539 41,000 -60 Descending Boston Center
11:06PM 43.2500 -68.5172 63° Northeast 468 539 41,000  Level Boston Center
11:07PM 43.3089 -68.3536 64° Northeast 468 539 41,000  Level Boston Center
11:08PM 43.3675 -68.1897 64° Northeast 468 539 41,000  Level Boston Center
11:09PM 43.4239 -68.0283 64° Northeast 473 544 41,000  Level Boston Center
11:10PM 43.4800 -67.8639 65° Northeast 473 544 41,000  Level Boston Center
11:11PM 43.5400 -67.6961 64° Northeast 478 550 41,000  Level Boston Center
11:12PM 43.5956 -67.5339 65° Northeast 478 550 41,000  Level Boston Center
11:12PM 43.6333 -67.4000 69° East 480 552 41,000  Level Moncton Center
11:13PM 43.6833 -67.2333 67° East 480 552 41,000  Level Moncton Center
11:14PM 43.7333 -67.0833 65° Northeast 470 541 41,000  Level Moncton Center
11:15PM 43.7833 -66.9167 67° East 470 541 41,100  Climbing Moncton Center
11:16PM 43.8500 -66.7333 63° Northeast 470 541 41,100  Level Moncton Center
11:17PM 43.9000 -66.5833 65° Northeast 480 552 41,100  Level Moncton Center
11:18PM 43.9667 -66.4167 61° Northeast 480 552 41,100 -60 Level Moncton Center
11:19PM 44.0167 -66.2333 69° East 490 564 41,000  Descending Moncton Center
11:20PM 44.0667 -66.0667 67° East 480 552 41,100  Climbing Moncton Center
11:21PM 44.1333 -65.8833 63° Northeast 480 552 41,100  Level Moncton Center
11:22PM 44.1833 -65.7333 65° Northeast 480 552 41,100  Level Moncton Center
11:23PM 44.2500 -65.5667 61° Northeast 480 552 41,100 -60 Level Moncton Center
11:24PM 44.3000 -65.4000 67° East 480 552 41,000  Descending Moncton Center
11:25PM 44.3500 -65.2167 69° East 490 564 41,100  Climbing Moncton Center
11:26PM 44.4000 -65.0500 67° East 490 564 41,100  Level Moncton Center
11:27PM 44.4500 -64.8667 69° East 500 575 41,100  Level Moncton Center
11:28PM 44.5167 -64.6833 63° Northeast 500 575 41,100 -60 Level Moncton Center
11:29PM 44.5667 -64.5167 67° East 490 564 41,000  Descending Moncton Center
11:30PM 44.6167 -64.3333 69° East 490 564 41,100  Climbing Moncton Center
11:31PM 44.6667 -64.1667 67° East 490 564 41,100  Level Moncton Center
11:32PM 44.7333 -63.9667 65° Northeast 480 552 41,100  Level Moncton Center
11:33PM 44.7833 -63.8000 67° East 480 552 41,100  Level Moncton Center
11:34PM 44.8667 -63.6667 49° Northeast 470 541 41,100  Level Moncton Center
11:35PM 44.9833 -63.5667 31° Northeast 460 529 41,100  Level Moncton Center
11:36PM 45.0833 -63.4667 35° Northeast 460 529 41,100  Level Moncton Center
11:37PM 45.2000 -63.3833 27° Northeast 450 518 41,100  Level Moncton Center
11:38PM 45.3000 -63.3000 30° Northeast 450 518 41,100 -60 Level Moncton Center
11:39PM 45.4167 -63.2000 31° Northeast 450 518 41,000  Descending Moncton Center
11:40PM 45.5167 -63.1000 35° Northeast 460 529 41,100  Climbing Moncton Center
11:41PM 45.6333 -63.0333 22° Northeast 460 529 41,000  Descending Moncton Center
11:42PM 45.7500 -62.9333 31° Northeast 460 529 41,100  Climbing Moncton Center
11:43PM 45.8500 -62.8333 35° Northeast 460 529 41,000 -60 Descending Moncton Center
11:44PM 45.9667 -62.7333 31° Northeast 460 529 41,000  Level Moncton Center
11:45PM 46.0833 -62.6667 22° Northeast 450 518 41,100  Climbing Moncton Center
11:46PM 46.1833 -62.5667 35° Northeast 450 518 41,100  Level Moncton Center
11:47PM 46.2833 -62.4667 35° Northeast 450 518 41,100  Level Moncton Center
11:48PM 46.4000 -62.3833 26° Northeast 450 518 41,100  Level Moncton Center
11:49PM 46.5167 -62.2833 31° Northeast 450 518 41,100  Level Moncton Center
11:50PM 46.6167 -62.1833 34° Northeast 450 518 41,100  Level Moncton Center
11:51PM 46.7167 -62.1000 30° Northeast 450 518 41,100  Level Moncton Center
11:52PM 46.8333 -62.0000 30° Northeast 460 529 41,100  Level Moncton Center
11:53PM 46.9333 -61.9000 34° Northeast 460 529 41,100  Level Moncton Center
11:54PM 47.0500 -61.8000 30° Northeast 460 529 41,100  Level Moncton Center
11:55PM 47.1667 -61.6833 34° Northeast 460 529 41,100  Level Moncton Center
11:56PM 47.2667 -61.6167 24° Northeast 460 529 41,100  Level Moncton Center
11:57PM 47.3833 -61.5000 34° Northeast 470 541 41,100  Level Moncton Center
11:58PM 47.5000 -61.4000 30° Northeast 460 529 41,100  Level Moncton Center
11:59PM 47.6000 -61.3167 29° Northeast 460 529 41,100  Level Moncton Center
12:00AM 47.7167 -61.2167 30° Northeast 460 529 41,100  Level Moncton Center
12:01AM 47.8167 -61.1000 38° Northeast 470 541 41,100  Level Moncton Center
12:02AM 47.9333 -61.0000 30° Northeast 470 541 41,100  Level Moncton Center
12:03AM 48.0500 -60.8833 34° Northeast 470 541 41,100  Level Moncton Center
12:04AM 48.1500 -60.8000 29° Northeast 470 541 41,100  Level Moncton Center
12:05AM 48.2833 -60.7000 27° Northeast 470 541 41,100  Level Moncton Center
12:06AM 48.3667 -60.5833 43° Northeast 470 541 41,100  Level Moncton Center
12:07AM 48.4833 -60.4833 30° Northeast 470 541 41,100  Level Moncton Center
12:08AM 48.6000 -60.3667 33° Northeast 470 541 41,100 -60 Level Moncton Center
12:09AM 48.7167 -60.2667 29° Northeast 470 541 41,000  Descending Moncton Center
12:10AM 48.8333 -60.1500 33° Northeast 480 552 41,100  Climbing Moncton Center
12:11AM 48.9167 -60.0667 33° Northeast 470 541 41,000  Descending Moncton Center
12:12AM 49.0500 -59.9500 30° Northeast 470 541 41,100  Climbing Moncton Center
12:13AM 49.1500 -59.8333 37° Northeast 470 541 41,000  Descending Moncton Center
12:14AM 49.2667 -59.7333 29° Northeast 470 541 41,100  Climbing Moncton Center
12:15AM 49.3833 -59.6167 33° Northeast 470 541 41,000 -60 Descending Moncton Center
12:16AM 49.4833 -59.5167 33° Northeast 480 552 41,000  Level Moncton Center
12:17AM 49.6000 -59.4167 29° Northeast 480 552 41,000  Level Moncton Center
12:18AM 49.7167 -59.3000 33° Northeast 480 552 41,000  Level Moncton Center
12:19AM 49.8333 -59.1833 33° Northeast 480 552 41,100  Climbing Moncton Center
12:20AM 49.9333 -59.0667 37° Northeast 480 552 41,100  Level Moncton Center
12:21AM 50.0500 -58.9500 33° Northeast 480 552 41,100 -60 Level Moncton Center
12:22AM 50.1667 -58.8333 33° Northeast 480 552 41,000 -60 Descending Moncton Center
12:23AM 50.2500 -58.7167 42° Northeast 480 552 41,000  Level Moncton Center
12:24AM 50.3667 -58.5667 39° Northeast 490 564 41,000  Level Moncton Center
12:25AM 50.4667 -58.4167 44° Northeast 500 575 41,100  Climbing Moncton Center
12:26AM 50.5667 -58.2500 47° Northeast 500 575 41,100  Level Moncton Center
12:27AM 50.6667 -58.1000 44° Northeast 500 575 41,100  Level Moncton Center
12:28AM 50.7667 -57.9333 46° Northeast 500 575 41,100  Level Moncton Center
12:29AM 50.8667 -57.7833 43° Northeast 500 575 41,100 -60 Level Moncton Center
12:30AM 50.9667 -57.6333 43° Northeast 510 587 41,000  Descending Moncton Center
12:31AM 51.0667 -57.4667 46° Northeast 500 575 41,100  Climbing Moncton Center
12:32AM 51.1667 -57.3167 43° Northeast 500 575 41,100 -60 Level Moncton Center
12:33AM 51.2667 -57.1667 43° Northeast 500 575 41,000 -60 Descending Moncton Center
12:34AM 51.3500 -57.0000 51° Northeast 500 575 41,000  Level Moncton Center
12:35AM 51.4667 -56.8333 42° Northeast 490 564 41,000  Level Moncton Center
12:36AM 51.5500 -56.6833 48° Northeast 500 575 41,000  Level Moncton Center
12:37AM 51.6500 -56.5167 46° Northeast 490 564 41,000  Level Moncton Center
12:38AM 51.7500 -56.3667 43° Northeast 490 564 41,000  Level Moncton Center
12:39AM 51.8333 -56.2167 48° Northeast 490 564 41,100  Climbing Moncton Center
12:40AM 51.9333 -56.0500 46° Northeast 490 564 41,100 -60 Level Moncton Center
12:41AM 52.0167 -55.8833 51° Northeast 490 564 41,000  Descending Moncton Center
12:42AM 52.1167 -55.7167 46° Northeast 490 564 41,100  Climbing Moncton Center
12:43AM 52.2167 -55.5667 43° Northeast 490 564 41,000  Descending Moncton Center
12:44AM 52.3000 -55.4167 48° Northeast 480 552 41,100  Climbing Moncton Center
12:45AM 52.4000 -55.2167 51° Northeast 490 564 41,100  Level Moncton Center
12:46AM 52.5000 -55.0667 42° Northeast 490 564 41,100  Level Moncton Center
12:47AM 52.5833 -54.9167 48° Northeast 490 564 41,100 -60 Level Moncton Center
12:48AM 52.6667 -54.7500 50° Northeast 480 552 41,000 -60 Descending Moncton Center
12:49AM 52.7667 -54.6000 42° Northeast 490 564 41,000  Level Moncton Center
12:50AM 52.8667 -54.4333 45° Northeast 490 564 41,100  Climbing Moncton Center
12:51AM 52.9500 -54.2667 50° Northeast 480 552 41,100  Level Moncton Center
12:52AM 53.0333 -54.0833 53° Northeast 490 564 41,100 -120 Level Moncton Center
12:53AM 53.0667 -54.0333 67° East 480 552 41,000 -240 Descending Gander Center
12:53AM 53.0667 -54.0667 67° East 491 565 41,000  Level ETMS Enhanced Traffic Management System
12:54AM 53.1333 -53.8000 64° Northeast 500 575 41,000  Level Gander Center
12:55AM 53.1667 -53.6333 71° East 490 564 41,100  Climbing Gander Center
12:56AM 53.2167 -53.4000 70° East 500 575 41,100  Level Gander Center
12:57AM 53.2833 -53.1833 63° Northeast 500 575 41,100  Level Gander Center
12:58AM 53.3333 -52.9833 67° East 500 575 41,100  Level Gander Center
01:00AM 53.4167 -52.5500 72° East 500 575 41,100  Level Gander Center
01:01AM 53.4833 -52.3000 66° East 500 575 41,100  Level Gander Center
01:02AM 53.5167 -52.1000 74° East 500 575 41,100  Level Gander Center
01:03AM 53.5833 -51.8667 64° Northeast 510 587 41,100  Level Gander Center
01:04AM 53.6167 -51.6500 75° East 500 575 41,100 -60 Level Gander Center
01:05AM 53.6833 -51.4333 62° Northeast 500 575 41,000 -60 Descending Gander Center
01:06AM 53.7000 -51.2000 83° East 500 575 41,000  Level Gander Center
01:07AM 53.7667 -51.0000 61° Northeast 500 575 41,100  Climbing Gander Center
01:08AM 53.8167 -50.7833 69° East 500 575 41,100 -60 Level Gander Center
01:09AM 53.8667 -50.5333 71° East 490 564 41,000  Descending Gander Center
01:10AM 53.8833 -50.3333 82° East 490 564 41,100  Climbing Gander Center
01:11AM 53.9333 -50.1167 69° East 500 575 41,000  Descending Gander Center
01:12AM 53.9833 -49.8833 70° East 500 575 41,100  Climbing Gander Center
01:14AM 54.0000 -50.0000 76° East 504 580 41,000 -60 Descending ETMS Enhanced Traffic Management System
01:20AM 54.2832 -47.9013 78° East 504 580 41,000  Level FlightAware Transoceanic
01:21AM 54.3124 -47.6664 78° East 504 580 41,000  Level FlightAware Transoceanic
01:22AM 54.3411 -47.4311 78° East 504 580 41,000  Level FlightAware Transoceanic
01:23AM 54.3694 -47.1955 78° East 504 580 41,000  Level FlightAware Transoceanic
01:24AM 54.3972 -46.9596 79° East 504 580 41,000  Level FlightAware Transoceanic
01:25AM 54.4246 -46.7234 79° East 504 580 41,000  Level FlightAware Transoceanic
01:26AM 54.4515 -46.4869 79° East 504 580 41,000  Level FlightAware Transoceanic
01:27AM 54.4780 -46.2500 79° East 504 580 41,000  Level FlightAware Transoceanic
01:28AM 54.5039 -46.0129 79° East 504 580 41,000  Level FlightAware Transoceanic
01:29AM 54.5294 -45.7754 80° East 504 580 41,000  Level FlightAware Transoceanic
01:30AM 54.5545 -45.5377 80° East 504 580 41,000  Level FlightAware Transoceanic
01:31AM 54.5791 -45.2996 80° East 504 580 41,000  Level FlightAware Transoceanic
01:32AM 54.6032 -45.0613 80° East 504 580 41,000  Level FlightAware Transoceanic
01:33AM 54.6268 -44.8227 80° East 504 580 41,000  Level FlightAware Transoceanic
01:34AM 54.6500 -44.5839 81° East 504 580 41,000  Level FlightAware Transoceanic
01:35AM 54.6727 -44.3447 81° East 504 580 41,000  Level FlightAware Transoceanic
01:36AM 54.6950 -44.1053 81° East 504 580 41,000  Level FlightAware Transoceanic
01:37AM 54.7167 -43.8657 81° East 504 580 41,000  Level FlightAware Transoceanic
01:38AM 54.7380 -43.6257 81° East 504 580 41,000  Level FlightAware Transoceanic
01:39AM 54.7588 -43.3856 82° East 504 580 41,000  Level FlightAware Transoceanic
01:40AM 54.7792 -43.1452 82° East 504 580 41,000  Level FlightAware Transoceanic
01:41AM 54.7990 -42.9045 82° East 504 580 41,000  Level FlightAware Transoceanic
01:42AM 54.8184 -42.6636 82° East 504 580 41,000  Level FlightAware Transoceanic
01:43AM 54.8373 -42.4225 82° East 504 580 41,000  Level FlightAware Transoceanic
01:44AM 54.8558 -42.1812 83° East 504 580 41,000  Level FlightAware Transoceanic
01:45AM 54.8737 -41.9396 83° East 504 580 41,000  Level FlightAware Transoceanic
01:46AM 54.8912 -41.6978 83° East 504 580 41,000  Level FlightAware Transoceanic
01:47AM 54.9082 -41.4559 83° East 504 580 41,000  Level FlightAware Transoceanic
01:48AM 54.9247 -41.2137 83° East 504 580 41,000  Level FlightAware Transoceanic
01:49AM 54.9407 -40.9713 84° East 504 580 41,000  Level FlightAware Transoceanic
01:50AM 54.9563 -40.7288 84° East 504 580 41,000  Level FlightAware Transoceanic
01:51AM 54.9713 -40.4860 84° East 504 580 41,000  Level FlightAware Transoceanic
01:52AM 54.9859 -40.2431 84° East 504 580 41,000  Level FlightAware Transoceanic
01:53AM 54.9987 -40.0230 84° East  Level FlightAware Approximate
01:54AM 55.0111 -39.8027 84° East  Level FlightAware Approximate
01:55AM 55.0070 -39.8253 86° East  Level FlightAware Approximate
01:56AM 55.0156 -39.6045 86° East  Level FlightAware Approximate
01:57AM 55.0238 -39.3836 86° East  Level FlightAware Approximate
01:58AM 55.0315 -39.1625 86° East  Level FlightAware Approximate
01:58AM 55.0000 -40.0000 86° East 468 539 41,000  Level ETMS Enhanced Traffic Management System
01:59AM 55.0389 -38.9414 87° East  Level FlightAware Approximate
02:00AM 55.0458 -38.7202 87° East  Level FlightAware Approximate
02:01AM 55.0524 -38.4990 87° East  Level FlightAware Approximate
02:02AM 55.0585 -38.2777 87° East  Level FlightAware Approximate
02:03AM 55.0643 -38.0563 87° East  Level FlightAware Approximate
02:04AM 55.0667 -37.9578 88° East 468 539 41,000  Level FlightAware Transoceanic
02:05AM 55.0720 -37.7305 88° East 468 539 41,000  Level FlightAware Transoceanic
02:06AM 55.0769 -37.5032 88° East 468 539 41,000  Level FlightAware Transoceanic
02:07AM 55.0813 -37.2758 88° East 468 539 41,000  Level FlightAware Transoceanic
02:08AM 55.0854 -37.0484 88° East 468 539 41,000  Level FlightAware Transoceanic
02:09AM 55.0890 -36.8209 89° East 468 539 41,000  Level FlightAware Transoceanic
02:10AM 55.0922 -36.5933 89° East 468 539 41,000  Level FlightAware Transoceanic
02:11AM 55.0949 -36.3658 89° East 468 539 41,000  Level FlightAware Transoceanic
02:12AM 55.0973 -36.1382 89° East 468 539 41,000  Level FlightAware Transoceanic
02:13AM 55.0992 -35.9106 89° East 468 539 41,000  Level FlightAware Transoceanic
02:14AM 55.1007 -35.6830 89° East 468 539 41,000  Level FlightAware Transoceanic
02:15AM 55.1017 -35.4553 90° East 468 539 41,000  Level FlightAware Transoceanic
02:16AM 55.1024 -35.2277 90° East 468 539 41,000  Level FlightAware Transoceanic
02:17AM 55.1026 -35.0000 90° East 468 539 41,000  Level FlightAware Transoceanic
02:18AM 55.1024 -34.7723 90° East 468 539 41,000  Level FlightAware Transoceanic
02:19AM 55.1017 -34.5447 90° East 468 539 41,000  Level FlightAware Transoceanic
02:20AM 55.1007 -34.3170 91° East 468 539 41,000  Level FlightAware Transoceanic
02:21AM 55.0992 -34.0894 91° East 468 539 41,000  Level FlightAware Transoceanic
02:22AM 55.0973 -33.8618 91° East 468 539 41,000  Level FlightAware Transoceanic
02:23AM 55.0949 -33.6342 91° East 468 539 41,000  Level FlightAware Transoceanic
02:24AM 55.0922 -33.4067 91° East 468 539 41,000  Level FlightAware Transoceanic
02:25AM 55.0890 -33.1791 91° East 468 539 41,000  Level FlightAware Transoceanic
02:26AM 55.0854 -32.9516 92° East 468 539 41,000  Level FlightAware Transoceanic
02:27AM 55.0813 -32.7242 92° East 468 539 41,000  Level FlightAware Transoceanic
02:28AM 55.0769 -32.4968 92° East 468 539 41,000  Level FlightAware Transoceanic
02:29AM 55.0720 -32.2695 92° East 468 539 41,000  Level FlightAware Transoceanic
02:30AM 55.0667 -32.0422 92° East 468 539 41,000  Level FlightAware Transoceanic
02:31AM 55.0610 -31.8150 93° East 468 539 41,000  Level FlightAware Transoceanic
02:32AM 55.0549 -31.5878 93° East 468 539 41,000  Level FlightAware Transoceanic
02:33AM 55.0483 -31.3607 93° East 468 539 41,000  Level FlightAware Transoceanic
02:34AM 55.0413 -31.1337 93° East 468 539 41,000  Level FlightAware Transoceanic
02:35AM 55.0339 -30.9068 93° East 468 539 41,000  Level FlightAware Transoceanic
02:36AM 55.0260 -30.6800 94° East 468 539 41,000  Level FlightAware Transoceanic
02:37AM 55.0178 -30.4532 94° East 468 539 41,000  Level FlightAware Transoceanic
02:38AM 55.0091 -30.2265 94° East 468 539 41,000  Level FlightAware Transoceanic
02:39AM 55.0002 -30.0058 94° East  Level FlightAware Approximate
02:40AM 54.9909 -29.7851 94° East  Level FlightAware Approximate
02:40AM 55.0000 -30.0000 96° East 481 554 41,000  Level ETMS Enhanced Traffic Management System
02:41AM 54.9875 -29.7915 96° East  Level FlightAware Approximate
02:42AM 54.9740 -29.5716 96° East  Level FlightAware Approximate
02:43AM 54.9600 -29.3518 96° East  Level FlightAware Approximate
02:44AM 54.9456 -29.1322 96° East  Level FlightAware Approximate
02:45AM 54.9309 -28.9127 97° East  Level FlightAware Approximate
02:46AM 54.8966 -28.3791 97° East 481 554 41,000  Level FlightAware Transoceanic
02:47AM 54.8801 -28.1483 97° East 481 554 41,000  Level FlightAware Transoceanic
02:48AM 54.8632 -27.9176 97° East 481 554 41,000  Level FlightAware Transoceanic
02:49AM 54.8458 -27.6872 98° East 481 554 41,000  Level FlightAware Transoceanic
02:50AM 54.8279 -27.4569 98° East 481 554 41,000  Level FlightAware Transoceanic
02:51AM 54.8097 -27.2269 98° East 481 554 41,000  Level FlightAware Transoceanic
02:52AM 54.7910 -26.9970 98° East 481 554 41,000  Level FlightAware Transoceanic
02:53AM 54.7718 -26.7674 98° East 481 554 41,000  Level FlightAware Transoceanic
02:54AM 54.7523 -26.5380 99° East 481 554 41,000  Level FlightAware Transoceanic
02:55AM 54.7322 -26.3088 99° East 481 554 41,000  Level FlightAware Transoceanic
02:56AM 54.7118 -26.0798 99° East 481 554 41,000  Level FlightAware Transoceanic
02:57AM 54.6909 -25.8511 99° East 481 554 41,000  Level FlightAware Transoceanic
02:58AM 54.6697 -25.6227 99° East 481 554 41,000  Level FlightAware Transoceanic
02:59AM 54.6479 -25.3944 99° East 481 554 41,000  Level FlightAware Transoceanic
03:00AM 54.6258 -25.1664 100° East 481 554 41,000  Level FlightAware Transoceanic
03:01AM 54.6032 -24.9387 100° East 481 554 41,000  Level FlightAware Transoceanic
03:02AM 54.5802 -24.7112 100° East 481 554 41,000  Level FlightAware Transoceanic
03:03AM 54.5568 -24.4839 100° East 481 554 41,000  Level FlightAware Transoceanic
03:04AM 54.5329 -24.2570 100° East 481 554 41,000  Level FlightAware Transoceanic
03:05AM 54.5086 -24.0303 101° East 481 554 41,000  Level FlightAware Transoceanic
03:06AM 54.4839 -23.8039 101° East 481 554 41,000  Level FlightAware Transoceanic
03:07AM 54.4588 -23.5777 101° East 481 554 41,000  Level FlightAware Transoceanic
03:08AM 54.4332 -23.3518 101° East 481 554 41,000  Level FlightAware Transoceanic
03:09AM 54.4072 -23.1262 101° East 481 554 41,000  Level FlightAware Transoceanic
03:10AM 54.3809 -22.9009 101° East 481 554 41,000  Level FlightAware Transoceanic
03:11AM 54.3540 -22.6759 102° East 481 554 41,000  Level FlightAware Transoceanic
03:12AM 54.3268 -22.4512 102° East 481 554 41,000  Level FlightAware Transoceanic
03:13AM 54.2992 -22.2268 102° East 481 554 41,000  Level FlightAware Transoceanic
03:14AM 54.2711 -22.0027 102° East 481 554 41,000  Level FlightAware Transoceanic
03:15AM 54.2426 -21.7789 102° East 481 554 41,000  Level FlightAware Transoceanic
03:16AM 54.2137 -21.5554 103° East 481 554 41,000  Level FlightAware Transoceanic
03:17AM 54.1844 -21.3323 103° East 481 554 41,000  Level FlightAware Transoceanic
03:18AM 54.1547 -21.1094 103° East 481 554 41,000  Level FlightAware Transoceanic
03:19AM 54.1246 -20.8869 103° East 481 554 41,000  Level FlightAware Transoceanic
03:20AM 54.0941 -20.6646 103° East 481 554 41,000  Level FlightAware Transoceanic
03:21AM 54.0631 -20.4428 103° East 481 554 41,000  Level FlightAware Transoceanic
03:22AM 54.0318 -20.2212 104° East 481 554 41,000  Level FlightAware Transoceanic
03:23AM 54.0016 -20.0114 104° East  Level FlightAware Approximate
03:24AM 53.9712 -19.8018 104° East  Level FlightAware Approximate
03:25AM 54.0026 -19.8075 89° East  Level FlightAware Approximate
03:26AM 54.0051 -19.5916 89° East  Level FlightAware Approximate
03:27AM 54.0072 -19.3757 89° East  Level FlightAware Approximate
03:28AM 54.0089 -19.1597 89° East  Level FlightAware Approximate
03:29AM 54.0103 -18.9437 89° East  Level FlightAware Approximate
03:30AM 54.0112 -18.7277 89° East  Level FlightAware Approximate
03:31AM 54.0118 -18.5117 90° East  Level FlightAware Approximate
03:32AM 54.0120 -18.2957 90° East  Level FlightAware Approximate
03:33AM 54.0117 -18.0798 90° East  Level FlightAware Approximate
03:34AM 54.0112 -17.8638 90° East  Level FlightAware Approximate
03:35AM 54.0102 -17.6478 90° East  Level FlightAware Approximate
03:36AM 54.0088 -17.4318 91° East  Level FlightAware Approximate
03:37AM 54.0071 -17.2159 91° East  Level FlightAware Approximate
03:38AM 54.0049 -16.9999 91° East  Level FlightAware Approximate
03:39AM 54.0024 -16.7840 91° East  Level FlightAware Approximate
03:40AM 53.9995 -16.5681 91° East  Level FlightAware Approximate
03:41AM 53.9962 -16.3523 91° East  Level FlightAware Approximate
03:42AM 53.9925 -16.1365 92° East  Level FlightAware Approximate
03:43AM 53.9884 -15.9207 92° East  Level FlightAware Approximate
03:44AM 53.9840 -15.7050 92° East  Level FlightAware Approximate
03:45AM 53.9791 -15.4893 92° East  Level FlightAware Approximate
03:46AM 53.9739 -15.2737 92° East  Level FlightAware Approximate
03:47AM 53.9683 -15.0581 92° East  Level FlightAware Approximate
03:48AM 53.9625 -14.8426 93° East  Level FlightAware Approximate
03:49AM 53.9565 -14.6271 93° East  Level FlightAware Approximate
03:50AM 53.9500 -14.4116 93° East  Level FlightAware Approximate
03:51AM 53.9432 -14.1963 93° East  Level FlightAware Approximate
03:52AM 53.9360 -13.9810 93° East  Level FlightAware Approximate
03:53AM 53.9284 -13.7658 93° East  Level FlightAware Approximate
03:54AM 53.9205 -13.5507 94° East  Level FlightAware Approximate
03:55AM 53.9121 -13.3357 94° East  Level FlightAware Approximate
03:56AM 53.9034 -13.1207 94° East  Level FlightAware Approximate
03:57AM 53.8943 -12.9059 94° East  Level FlightAware Approximate
03:58AM 53.8848 -12.6911 94° East  Level FlightAware Approximate
03:59AM 53.8749 -12.4765 94° East  Level FlightAware Approximate
04:00AM 53.8646 -12.2619 95° East  Level FlightAware Approximate
04:01AM 53.8540 -12.0475 95° East  Level FlightAware Approximate
04:02AM 53.8429 -11.8331 95° East  Level FlightAware Approximate
04:03AM 53.8315 -11.6189 95° East  Level FlightAware Approximate
04:04AM 53.8197 -11.4048 95° East  Level FlightAware Approximate
04:05AM 53.8076 -11.1908 95° East  Level FlightAware Approximate
04:06AM 53.7950 -10.9769 96° East  Level FlightAware Approximate
04:07AM 53.7821 -10.7632 96° East  Level FlightAware Approximate
04:08AM 53.7688 -10.5496 96° East  Level FlightAware Approximate
04:09AM 53.7573 -10.3358 95° East  Level FlightAware Approximate
04:10AM 53.7424 -10.1228 99° East  Level FlightAware Approximate
04:11AM 53.7212 -9.9113 100° East  Level FlightAware Approximate
04:12AM 53.7091 -9.6979 94° East  Level FlightAware Approximate
04:13AM 53.6984 -9.4843 100° East  Level FlightAware Approximate
04:14AM 53.6735 -9.2744 106° East  Level FlightAware Approximate
04:15AM 53.6597 -9.0622 94° East  Level FlightAware Approximate
04:16AM 53.6507 -8.8486 94° East  Level FlightAware Approximate
04:16AM 53.8701 -8.9554 94° East 464 534 43,000  Level FlightAware UK
04:16AM 53.8651 -8.8506 95° East 468 539 42,400 -1,920 Descending FlightAware UK
04:17AM 53.8602 -8.7443 94° East 478 550 41,100 -2,640 Descending FlightAware UK
04:17AM 53.8547 -8.6354 95° East 470 541 39,800 -2,520 Descending FlightAware UK
04:18AM 53.8495 -8.5287 95° East 466 536 38,600 -2,340 Descending FlightAware UK
04:18AM 53.8441 -8.4232 95° East 456 525 37,500 -2,340 Descending FlightAware UK
04:19AM 53.8388 -8.3195 95° East 446 513 36,300 -2,340 Descending FlightAware UK
04:19AM 53.8333 -8.2147 95° East 458 527 35,200 -2,340 Descending FlightAware UK
04:20AM 53.8274 -8.1061 95° East 466 536 34,000 -2,400 Descending FlightAware UK
04:20AM 53.8215 -7.9963 95° East 470 541 32,800 -2,520 Descending FlightAware UK
04:21AM 53.8153 -7.8845 95° East 476 548 31,500 -2,520 Descending FlightAware UK
04:21AM 53.8089 -7.7714 95° East 480 552 30,300 -2,520 Descending FlightAware UK
04:22AM 53.8024 -7.6580 96° East 476 548 29,000 -2,520 Descending FlightAware UK
04:22AM 53.7960 -7.5465 96° East 462 532 27,800 -2,400 Descending FlightAware UK
04:23AM 53.7896 -7.4404 96° East 452 520 26,600 -2,400 Descending FlightAware UK
04:23AM 53.7829 -7.3358 96° East 446 513 25,400 -2,280 Descending FlightAware UK
04:24AM 53.7743 -7.2318 98° East 436 502 24,300 -2,280 Descending FlightAware UK
04:24AM 53.7646 -7.1308 99° East 428 493 23,100 -2,340 Descending FlightAware UK
04:25AM 53.7545 -7.0322 100° East 422 486 22,000 -2,220 Descending FlightAware UK
04:25AM 53.7444 -6.9344 100° East 416 479 20,900 -2,220 Descending FlightAware UK
04:26AM 53.7344 -6.8380 100° East 408 470 19,800 -2,100 Descending FlightAware UK
04:26AM 53.7244 -6.7431 100° East 404 465 18,800 -2,100 Descending FlightAware UK
04:27AM 53.7148 -6.6510 100° East 398 458 17,700 -2,100 Descending FlightAware UK
04:27AM 53.7051 -6.5600 100° East 390 449 16,700 -2,040 Descending FlightAware UK
04:28AM 53.6957 -6.4711 100° East 386 444 15,700 -2,040 Descending FlightAware UK
04:28AM 53.6864 -6.3839 100° East 378 435 14,700 -1,920 Descending FlightAware UK
04:29AM 53.6775 -6.3019 100° East 354 407 13,800 -1,800 Descending FlightAware UK
04:29AM 53.6689 -6.2236 100° East 334 384 12,900 -1,740 Descending FlightAware UK
04:30AM 53.6609 -6.1494 100° East 324 373 12,100 -1,740 Descending FlightAware UK
04:31AM 53.6426 -6.0708 111° Southeast 298 343 11,000 -2,100 Descending FlightAware UK
04:31AM 53.5945 -6.0135 145° Southeast 298 343 9,400 -2,160 Descending FlightAware UK
04:32AM 53.5530 -5.9706 148° Southeast 286 329 8,200 -2,220 Descending FlightAware UK
04:32AM 53.5126 -5.9283 148° Southeast 282 325 6,800 -2,460 Descending FlightAware UK
04:33AM 53.4733 -5.8878 149° Southeast 272 313 5,300 -1,680 Descending FlightAware UK
04:34AM 53.4402 -5.8843 176° South 224 258 5,000 -1,260 Descending FlightAware UK
04:34AM 53.4125 -5.9306 225° Southwest 192 221 3,800 -1,620 Descending FlightAware UK
04:35AM 53.3972 -5.9694 237° Southwest 194 223 3,100 -1,200 Descending FlightAware UK
04:35AM 53.3953 -6.0157 266° West 200 230 2,600 -1,200 Descending FlightAware UK
04:36AM 53.4015 -6.0713 281° West 190 219 1,800 -1,380 Descending FlightAware UK
04:38AM 53.4213 -6.2701 280° West  Level Estimated
04:45AM 53.4213 -6.2701 315° West  Level Estimated
04:46AM 53.4213 -6.2701 315° West  Level Estimated
04:47AM 53.4213 -6.2701 315° West  Level Estimated
04:48AM 53.4213 -6.2701 315° West  Level Estimated
04:49AM 53.4213 -6.2701 315° West  Level Estimated
04:50AM 53.4213 -6.2701 315° West  Level Estimated
04:51AM 53.4213 -6.2701 315° West  Level Estimated
04:52AM 53.4213 -6.2701 315° West  Level Estimated